aviador You're here:

YCAR Decoded Metar

CARNARVON in AUSTRALIA
Report Time2017-09-23 09:00:00
UTC Time2017-09-23 09:21:03
Flight Rules vfr VFR
Wind250° at 12 kt
W.Decomp.*RWY 22: 10.4 kt HW 6.0 kt RCW
RWY 18: 4.1 kt HW 11.3 kt RCW
W.Rank250° ranks 14
Current wind is above 250° avg. (9.7)
Visibility9999 m
Phenomena:N/A
Clouds:N/A
Expected CloudBase > 4,400 ft AGL from Temp-Dew spread
CeilingNone
Temp21°C (ISA +6)
Dew Point10°C (50% RH)
AAT16.8°C
QNH1015 hPa
Density Alt833 ft
Elevation26 ft
Report Wrong Elevation
Raw Report
METAR YCAR 230900Z AUTO 25012KT 9999 // ////// 21/10 Q1015=

Extra information for YCAR:More info

Metar Taf Metar & Taf Last 4 Metars F.Rules Stats Wind Profile Meteogram Temp Stats Airport Information Weather charts Add Link Nearby VenuesMetar ALERT Operation Metar Decoded Social comments